createdAt,value
2023-02-19T00:05:55.421Z,4.32
2023-02-19T00:12:01.804Z,4.31
2023-02-19T00:17:57.037Z,4.29
2023-02-19T00:24:00.453Z,4.29
2023-02-19T00:30:04.106Z,4.27
2023-02-19T00:36:07.724Z,4.24
2023-02-19T00:42:11.610Z,4.21
2023-02-19T00:48:15.010Z,4.14
2023-02-19T00:54:18.471Z,4.08
2023-02-19T01:00:22.077Z,4.07
2023-02-19T01:06:25.476Z,4.05
2023-02-19T01:12:28.942Z,4.05
2023-02-19T01:18:32.529Z,4.04
2023-02-19T01:24:36.170Z,4.04
2023-02-19T01:30:39.529Z,4.03
2023-02-19T01:36:45.603Z,4.02
2023-02-19T01:42:51.722Z,3.97
2023-02-19T01:48:55.367Z,3.95
2023-02-19T01:54:58.885Z,3.89
2023-02-19T02:01:05.331Z,3.80
2023-02-19T02:07:11.544Z,3.75
2023-02-19T02:13:15.139Z,3.71
2023-02-19T02:19:18.613Z,3.68
2023-02-19T02:25:24.966Z,3.67
2023-02-19T02:31:40.594Z,3.59
2023-02-19T02:37:44.287Z,3.54
2023-02-19T02:43:47.887Z,3.55
2023-02-19T02:49:54.236Z,3.57
2023-02-19T02:55:58.048Z,3.56
2023-02-19T03:02:32.237Z,3.56
2023-02-19T03:08:42.373Z,3.55
2023-02-19T03:14:50.134Z,3.51
2023-02-19T03:20:53.619Z,3.41
2023-02-19T03:26:57.103Z,3.33
2023-02-19T03:33:09.549Z,3.21
2023-02-19T03:39:18.850Z,3.09
2023-02-19T03:45:31.657Z,2.96
2023-02-19T03:51:50.542Z,2.76
2023-02-19T03:57:57.019Z,2.60
2023-02-19T04:04:15.823Z,2.60
2023-02-19T04:10:22.387Z,2.60
2023-02-19T04:16:25.955Z,2.56
2023-02-19T04:22:29.325Z,2.44
2023-02-19T04:28:32.843Z,2.33
2023-02-19T04:34:36.226Z,2.28
2023-02-19T04:40:39.664Z,2.28
2023-02-19T04:46:43.301Z,2.26
2023-02-19T04:52:46.775Z,2.21
2023-02-19T04:58:50.380Z,2.15
2023-02-19T05:04:19.091Z,2.11
2023-02-19T05:10:14.724Z,2.03
2023-02-19T05:16:18.462Z,1.96
2023-02-19T05:22:21.917Z,1.93
2023-02-19T05:28:37.586Z,1.95
2023-02-19T05:34:41.110Z,1.97
2023-02-19T05:40:44.795Z,2.02
2023-02-19T05:46:48.364Z,2.00
2023-02-19T05:52:44.945Z,1.95
2023-02-19T05:58:48.376Z,1.90
2023-02-19T06:04:53.543Z,1.91
2023-02-19T06:10:57.030Z,1.92
2023-02-19T06:17:00.584Z,1.87
2023-02-19T06:23:04.001Z,1.85
2023-02-19T06:29:07.390Z,1.89
2023-02-19T06:35:11.015Z,1.91
2023-02-19T06:41:14.770Z,1.88
2023-02-19T06:47:18.353Z,1.86
2023-02-19T06:53:21.921Z,1.83
2023-02-19T06:59:25.144Z,1.83
2023-02-19T07:05:28.774Z,1.87
2023-02-19T07:11:37.987Z,1.92
2023-02-19T07:17:30.120Z,1.93
2023-02-19T07:23:33.597Z,1.93
2023-02-19T07:29:37.153Z,1.97
2023-02-19T07:35:40.541Z,2.02
2023-02-19T07:41:44.010Z,2.06
2023-02-19T07:47:47.512Z,2.10
2023-02-19T07:53:50.912Z,2.16
2023-02-19T07:59:54.602Z,2.21
2023-02-19T08:05:58.096Z,2.34
2023-02-19T08:12:02.711Z,2.48
2023-02-19T08:18:06.305Z,2.60
2023-02-19T08:24:09.984Z,2.70
2023-02-19T08:30:13.244Z,2.83
2023-02-19T08:36:16.819Z,2.98
2023-02-19T08:42:20.434Z,3.12
2023-02-19T08:48:23.873Z,3.29
2023-02-19T08:54:27.385Z,3.50
2023-02-19T09:00:30.220Z,3.61
2023-02-19T09:06:33.690Z,3.67
2023-02-19T09:12:37.137Z,3.59
2023-02-19T09:18:40.863Z,3.61
2023-02-19T09:24:44.403Z,3.66
2023-02-19T09:30:48.134Z,3.74
2023-02-19T09:36:51.723Z,3.79
2023-02-19T09:42:57.790Z,3.91
2023-02-19T09:49:01.520Z,4.06
2023-02-19T09:55:05.272Z,4.24
2023-02-19T10:01:23.947Z,4.31
2023-02-19T10:07:20.204Z,4.38
2023-02-19T10:13:26.386Z,4.43
2023-02-19T10:19:29.966Z,4.52
2023-02-19T10:25:33.506Z,4.80
2023-02-19T10:31:39.747Z,4.99
2023-02-19T10:37:43.144Z,5.24
2023-02-19T10:43:46.748Z,5.47
2023-02-19T10:49:51.592Z,5.32
2023-02-19T10:55:59.188Z,5.39
2023-02-19T11:02:17.922Z,5.47
2023-02-19T11:08:24.844Z,5.38
2023-02-19T11:14:31.149Z,5.21
2023-02-19T11:20:37.695Z,5.26
2023-02-19T11:26:34.466Z,5.42
2023-02-19T11:32:23.012Z,5.46
2023-02-19T11:38:28.518Z,5.76
2023-02-19T11:44:49.963Z,6.13
2023-02-19T11:50:51.645Z,6.51
2023-02-19T11:57:03.897Z,6.46
2023-02-19T12:03:19.594Z,6.30
2023-02-19T12:09:32.290Z,6.15
2023-02-19T12:15:38.861Z,5.94
2023-02-19T12:21:47.751Z,5.68
2023-02-19T12:27:56.941Z,5.52
2023-02-19T12:34:05.130Z,5.91
2023-02-19T12:40:20.736Z,5.68
2023-02-19T12:46:36.700Z,5.42
2023-02-19T12:52:55.344Z,5.31
2023-02-19T12:58:50.841Z,5.23
2023-02-19T13:05:01.245Z,5.35
2023-02-19T13:11:07.150Z,5.71
2023-02-19T13:17:09.773Z,5.71
2023-02-19T13:23:10.383Z,5.72
2023-02-19T13:29:05.418Z,6.00
2023-02-19T13:35:11.227Z,6.39
2023-02-19T13:41:13.701Z,6.64
2023-02-19T13:47:19.796Z,6.65
2023-02-19T13:53:29.205Z,6.52
2023-02-19T13:59:37.472Z,6.46
2023-02-19T14:05:39.762Z,6.52
2023-02-19T14:11:43.174Z,6.19
2023-02-19T14:17:40.050Z,5.94
2023-02-19T14:23:43.464Z,5.88
2023-02-19T14:29:47.900Z,5.72
2023-02-19T14:35:41.407Z,5.55
2023-02-19T14:41:26.274Z,5.32
2023-02-19T14:47:26.595Z,5.16
2023-02-19T14:53:33.127Z,5.18
2023-02-19T14:59:48.770Z,5.24
2023-02-19T15:05:55.302Z,5.34
2023-02-19T15:11:57.845Z,5.42
2023-02-19T15:18:07.618Z,5.38
2023-02-19T15:23:49.784Z,5.28
2023-02-19T15:29:59.686Z,5.15
2023-02-19T15:35:36.495Z,5.04
2023-02-19T15:41:34.573Z,4.95
2023-02-19T15:47:35.581Z,4.76
2023-02-19T15:53:43.849Z,4.59
2023-02-19T15:59:53.764Z,4.46
2023-02-19T16:05:24.135Z,4.32
2023-02-19T16:11:33.530Z,4.24
2023-02-19T16:17:27.930Z,4.14
2023-02-19T16:23:24.058Z,3.96
2023-02-19T16:29:27.810Z,3.80
2023-02-19T16:35:24.028Z,3.70
2023-02-19T16:41:25.988Z,3.61
2023-02-19T16:47:30.241Z,3.54
2023-02-19T16:53:33.741Z,3.38
2023-02-19T16:59:09.995Z,3.31
2023-02-19T17:05:13.583Z,3.26
2023-02-19T17:10:47.479Z,3.15
2023-02-19T17:17:02.754Z,3.06
2023-02-19T17:22:41.684Z,2.92
2023-02-19T17:28:10.693Z,2.81
2023-02-19T17:34:06.922Z,2.72
2023-02-19T17:39:53.351Z,2.62
2023-02-19T17:44:56.457Z,2.50
2023-02-19T17:51:00.428Z,2.41
2023-02-19T17:56:52.977Z,2.29
2023-02-19T18:02:18.401Z,2.18
2023-02-19T18:07:47.039Z,2.07
2023-02-19T18:13:50.463Z,1.98
2023-02-19T18:19:53.838Z,1.86
2023-02-19T18:25:57.616Z,1.74
2023-02-19T18:32:01.120Z,1.66
2023-02-19T18:38:04.849Z,1.56
2023-02-19T18:44:06.732Z,1.52
2023-02-19T18:50:10.182Z,1.47
2023-02-19T18:55:58.985Z,1.48
2023-02-19T19:02:02.461Z,1.46
2023-02-19T19:08:05.896Z,1.46
2023-02-19T19:14:09.320Z,1.43
2023-02-19T19:20:12.708Z,1.40
2023-02-19T19:26:16.370Z,1.34
2023-02-19T19:32:12.433Z,1.27
2023-02-19T19:38:16.003Z,1.24
2023-02-19T19:44:19.453Z,1.21
2023-02-19T19:50:21.755Z,1.21
2023-02-19T19:56:07.810Z,1.19
2023-02-19T20:02:11.419Z,1.12
2023-02-19T20:08:14.814Z,1.07
2023-02-19T20:14:11.643Z,1.00
2023-02-19T20:20:15.033Z,0.98
2023-02-19T20:25:59.816Z,0.97
2023-02-19T20:31:56.586Z,0.94
2023-02-19T20:38:00.338Z,0.85
2023-02-19T20:44:03.759Z,0.81
2023-02-19T20:50:07.183Z,0.79
2023-02-19T20:56:10.813Z,0.79
2023-02-19T21:02:14.641Z,0.80
2023-02-19T21:08:18.258Z,0.83
2023-02-19T21:14:21.656Z,0.86
2023-02-19T21:20:25.499Z,0.88
2023-02-19T21:26:28.878Z,0.90
2023-02-19T21:32:38.584Z,0.96
2023-02-19T21:38:42.017Z,0.99
2023-02-19T21:44:45.629Z,1.02
2023-02-19T21:50:48.129Z,1.04
2023-02-19T21:56:50.217Z,1.08
2023-02-19T22:02:53.648Z,1.13
2023-02-19T22:08:57.467Z,1.20
2023-02-19T22:15:01.179Z,1.26
2023-02-19T22:21:04.876Z,1.30
2023-02-19T22:27:08.529Z,1.30
2023-02-19T22:33:11.910Z,1.27
2023-02-19T22:39:15.669Z,1.18
2023-02-19T22:45:19.040Z,1.13
2023-02-19T22:51:14.886Z,1.13
2023-02-19T22:57:18.381Z,1.16
2023-02-19T23:03:22.074Z,1.14
2023-02-19T23:09:25.503Z,1.13
2023-02-19T23:15:29.232Z,1.11
2023-02-19T23:21:26.073Z,1.10
2023-02-19T23:27:28.680Z,1.08
2023-02-19T23:33:32.210Z,1.06
2023-02-19T23:39:35.625Z,1.04
2023-02-19T23:45:39.032Z,1.03
2023-02-19T23:51:42.561Z,1.01
2023-02-19T23:57:45.988Z,0.98
